Time;durP1;ratioP1;P1;durP2;ratioP2;P2;SDS_P1;SDS_P2;PMS_P1;PMS_P2;Temp;Humidity;BMP_temperature;BMP_pressure;BME280_temperature;BME280_humidity;BME280_pressure;Samples;Min_cycle;Max_cycle;Signal;HPM_P1;HPM_P2
2023/03/24 00:01:49;;;;;;;22.57;19.80;;;;;;;10.28;88.46;99705.72;5072709;28;20219;-70
2023/03/24 00:04:16;;;;;;;28.47;21.47;;;;;;;10.23;88.96;99705.47;5072324;28;20184;-70
2023/03/24 00:06:43;;;;;;;28.30;21.13;;;;;;;10.23;89.79;99710.75;5071773;28;20733;-70
2023/03/24 00:09:12;;;;;;;24.13;18.97;;;;;;;10.23;89.45;99716.06;5072291;28;20697;-70
2023/03/24 00:11:39;;;;;;;26.83;20.80;;;;;;;10.20;88.86;99711.13;5072581;28;20199;-72
2023/03/24 00:14:05;;;;;;;21.83;18.60;;;;;;;10.17;89.13;99704.38;5072320;28;20223;-71
2023/03/24 00:16:33;;;;;;;25.33;20.60;;;;;;;10.23;88.75;99711.59;5072214;28;20584;-71
2023/03/24 00:19:00;;;;;;;24.07;19.67;;;;;;;10.24;88.69;99701.78;5073033;28;20191;-71
2023/03/24 00:21:27;;;;;;;26.87;21.03;;;;;;;10.16;88.78;99710.69;5072199;28;20229;-71
2023/03/24 00:23:57;;;;;;;23.10;19.47;;;;;;;10.11;89.56;99712.28;5071900;28;20192;-71
2023/03/24 00:26:25;;;;;;;23.53;19.30;;;;;;;10.11;89.58;99712.28;5071849;28;20249;-71
2023/03/24 00:28:52;;;;;;;26.03;21.07;;;;;;;10.07;90.05;99697.72;5071745;28;20226;-71
2023/03/24 00:31:19;;;;;;;24.40;19.30;;;;;;;10.04;90.10;99700.72;5072219;28;20211;-71
2023/03/24 00:33:49;;;;;;;29.00;21.00;;;;;;;10.08;89.39;99704.66;5071766;28;20536;-71
2023/03/24 00:36:18;;;;;;;25.60;20.70;;;;;;;10.09;89.31;99701.03;5071841;28;20183;-71
2023/03/24 00:38:47;;;;;;;28.40;20.30;;;;;;;10.09;89.49;99695.72;5071741;28;20193;-71
2023/03/24 00:41:16;;;;;;;27.63;19.83;;;;;;;10.08;89.25;99692.22;5071957;28;20189;-71
2023/03/24 00:43:45;;;;;;;25.77;20.57;;;;;;;10.07;89.62;99698.56;5071650;28;20670;-70
2023/03/24 00:46:27;;;;;;;23.60;20.33;;;;;;;10.01;89.34;99687.84;5072024;28;20184;-70
2023/03/24 00:48:56;;;;;;;28.77;21.60;;;;;;;10.00;88.71;99694.97;5072191;28;20204;-70
2023/03/24 00:51:24;;;;;;;26.13;20.60;;;;;;;9.98;88.72;99704.13;5071648;28;20192;-71
2023/03/24 00:53:56;;;;;;;27.73;20.87;;;;;;;9.97;89.41;99697.19;5071606;28;20195;-70
2023/03/24 00:56:24;;;;;;;26.87;21.27;;;;;;;9.95;89.47;99701.84;5072451;28;20183;-70
2023/03/24 00:58:53;;;;;;;25.20;20.30;;;;;;;9.88;89.88;99700.94;5071573;28;20195;-69
2023/03/24 01:01:21;;;;;;;24.77;20.87;;;;;;;9.87;90.00;99692.19;5071615;28;20648;-69
2023/03/24 01:03:49;;;;;;;30.07;22.07;;;;;;;9.82;90.13;99691.91;5071701;28;20223;-70
2023/03/24 01:06:16;;;;;;;30.73;22.70;;;;;;;9.80;90.16;99671.91;5071440;28;20670;-70
2023/03/24 01:08:43;;;;;;;29.20;22.53;;;;;;;9.84;89.59;99684.59;5071390;28;20691;-70
2023/03/24 01:11:11;;;;;;;29.93;22.63;;;;;;;9.84;89.68;99683.75;5071741;28;20279;-70
2023/03/24 01:13:39;;;;;;;25.37;22.20;;;;;;;9.82;89.91;99675.16;5071695;28;20565;-69
2023/03/24 01:16:09;;;;;;;28.47;23.40;;;;;;;9.75;89.96;99671.59;5072869;28;20249;-69
2023/03/24 01:18:39;;;;;;;32.93;25.07;;;;;;;9.76;89.54;99682.03;5075323;28;20199;-70
2023/03/24 01:21:08;;;;;;;33.93;26.33;;;;;;;9.71;89.37;99684.44;5074470;28;20256;-70
2023/03/24 01:23:35;;;;;;;34.43;25.77;;;;;;;9.62;89.21;99682.06;5074941;28;20230;-70
2023/03/24 01:26:05;;;;;;;35.47;26.20;;;;;;;9.52;90.60;99677.03;5074898;28;20203;-70
2023/03/24 01:28:32;;;;;;;35.50;27.13;;;;;;;9.48;90.41;99667.00;5076005;28;20212;-70
2023/03/24 01:30:59;;;;;;;40.30;28.97;;;;;;;9.46;91.26;99669.00;5074839;28;20187;-70
2023/03/24 01:33:27;;;;;;;37.00;27.43;;;;;;;9.44;90.62;99671.03;5075358;28;20194;-70
2023/03/24 01:35:54;;;;;;;38.70;27.93;;;;;;;9.40;90.29;99667.09;5074980;28;20690;-70
2023/03/24 01:38:21;;;;;;;36.30;26.77;;;;;;;9.38;91.14;99661.16;5075070;28;20551;-70
2023/03/24 01:40:47;;;;;;;37.37;26.40;;;;;;;9.36;91.03;99648.06;5075524;28;20191;-70
2023/03/24 01:43:19;;;;;;;34.57;26.50;;;;;;;9.37;90.59;99644.44;5074940;28;20196;-70
2023/03/24 01:45:59;;;;;;;36.40;26.77;;;;;;;9.38;90.56;99650.53;5074659;28;20709;-70
2023/03/24 01:48:33;;;;;;;34.07;26.00;;;;;;;9.36;91.01;99648.06;5074554;28;20260;-70
2023/03/24 01:51:04;;;;;;;38.00;25.73;;;;;;;9.33;90.59;99647.63;5075418;28;20176;-70
2023/03/24 01:53:33;;;;;;;33.80;25.80;;;;;;;9.25;90.72;99642.41;5074472;28;20180;-70
2023/03/24 01:56:02;;;;;;;34.77;25.90;;;;;;;9.11;90.24;99637.97;5074371;28;20188;-71
2023/03/24 01:58:32;;;;;;;37.93;26.20;;;;;;;9.07;90.89;99641.97;5074884;28;20187;-71
2023/03/24 02:00:58;;;;;;;33.87;25.37;;;;;;;9.09;91.00;99647.91;5074517;28;20227;-71
2023/03/24 02:03:32;;;;;;;35.17;25.97;;;;;;;9.07;90.21;99641.97;5074705;28;20283;-71
2023/03/24 02:06:01;;;;;;;33.03;23.57;;;;;;;9.00;90.60;99647.19;5075365;28;20212;-71
2023/03/24 02:08:32;;;;;;;32.03;23.40;;;;;;;8.94;90.71;99657.69;5074401;28;20222;-71
2023/03/24 02:11:01;;;;;;;31.27;22.23;;;;;;;8.95;91.22;99649.53;5074390;28;20611;-71
2023/03/24 02:13:28;;;;;;;31.33;22.80;;;;;;;8.96;90.89;99645.91;5074258;28;20191;-70
2023/03/24 02:16:06;;;;;;;30.10;22.47;;;;;;;8.92;90.00;99649.09;5074240;28;20241;-71
2023/03/24 02:18:45;;;;;;;28.40;21.97;;;;;;;8.88;90.09;99653.09;5075386;28;20211;-71
2023/03/24 02:21:36;;;;;;;27.40;21.73;;;;;;;8.88;90.35;99653.09;5073945;28;20184;-70
2023/03/24 02:24:40;;;;;;;29.10;22.33;;;;;;;8.86;89.96;99655.13;5075330;28;20180;-71
2023/03/24 02:27:25;;;;;;;31.77;23.50;;;;;;;8.88;90.32;99666.34;5075018;28;20234;-72
2023/03/24 02:30:23;;;;;;;29.77;23.37;;;;;;;8.88;89.34;99663.69;5073615;28;20675;-71
2023/03/24 02:33:12;;;;;;;32.07;23.10;;;;;;;8.86;89.37;99661.22;5074308;28;20180;-72
2023/03/24 02:36:07;;;;;;;35.37;24.60;;;;;;;8.86;90.25;99663.06;5073712;28;20652;-70
2023/03/24 02:39:00;;;;;;;32.33;23.80;;;;;;;8.85;90.12;99658.75;5074069;28;20203;-70
2023/03/24 02:41:31;;;;;;;29.37;23.33;;;;;;;8.83;90.08;99666.06;5074188;28;20192;-70
2023/03/24 02:44:06;;;;;;;30.37;21.17;;;;;;;8.81;90.01;99673.38;5074683;28;20176;-70
2023/03/24 02:46:38;;;;;;;27.57;20.67;;;;;;;8.69;90.37;99688.03;5073466;28;20190;-69
2023/03/24 02:49:16;;;;;;;29.80;22.77;;;;;;;8.49;91.10;99682.44;5073570;28;20212;-69
2023/03/24 02:51:52;;;;;;;27.77;21.63;;;;;;;8.31;92.37;99681.09;5073317;28;20702;-70
2023/03/24 02:54:27;;;;;;;34.67;21.90;;;;;;;8.15;92.77;99687.28;5074656;28;20187;-70
2023/03/24 02:57:04;;;;;;;24.60;19.87;;;;;;;8.07;93.35;99690.00;5074431;28;20231;-71
2023/03/24 02:59:37;;;;;;;30.83;22.83;;;;;;;8.04;94.18;99687.69;5073224;28;20224;-71
2023/03/24 03:02:07;;;;;;;31.30;20.83;;;;;;;7.95;94.25;99691.38;5074193;28;20624;-71
2023/03/24 03:04:38;;;;;;;26.93;21.20;;;;;;;7.79;93.77;99678.25;5074200;28;20214;-71
2023/03/24 03:07:10;;;;;;;28.63;22.00;;;;;;;7.95;95.77;99695.84;5073553;28;20184;-71
2023/03/24 03:09:41;;;;;;;29.93;20.80;;;;;;;7.97;96.26;99696.50;5073097;28;20207;-69
2023/03/24 03:12:12;;;;;;;27.87;21.93;;;;;;;8.02;95.26;99702.09;5072890;28;20261;-70
2023/03/24 03:14:45;;;;;;;27.80;20.67;;;;;;;7.94;94.60;99716.19;5073859;28;20183;-70
2023/03/24 03:17:16;;;;;;;25.77;20.43;;;;;;;7.91;94.56;99715.69;5073843;28;20189;-70
2023/03/24 03:19:51;;;;;;;24.90;18.53;;;;;;;7.79;94.54;99722.38;5073759;28;20184;-70
2023/03/24 03:22:22;;;;;;;22.70;18.60;;;;;;;7.84;94.83;99726.16;5073078;28;20176;-69
2023/03/24 03:24:52;;;;;;;27.80;17.90;;;;;;;7.78;93.65;99726.00;5072587;28;20237;-69
2023/03/24 03:27:26;;;;;;;21.93;17.50;;;;;;;7.84;93.37;99725.34;5072559;28;20241;-69
2023/03/24 03:29:59;;;;;;;20.50;16.80;;;;;;;7.84;93.89;99715.56;5072959;28;20211;-69
2023/03/24 03:32:30;;;;;;;20.23;16.67;;;;;;;7.88;93.73;99710.78;5072903;28;20202;-69
2023/03/24 03:35:02;;;;;;;23.23;17.23;;;;;;;7.87;92.49;99706.47;5073483;28;20538;-69
2023/03/24 03:37:36;;;;;;;21.83;17.20;;;;;;;7.85;93.21;99697.91;5072411;28;20546;-71
2023/03/24 03:40:08;;;;;;;22.93;18.27;;;;;;;7.79;93.11;99680.06;5071421;28;20196;-69
2023/03/24 03:42:36;;;;;;;21.30;18.37;;;;;;;7.77;93.07;99668.84;5072269;28;20212;-70
2023/03/24 03:45:04;;;;;;;27.37;19.63;;;;;;;7.79;94.37;99658.91;5072509;28;20188;-69
2023/03/24 03:47:31;;;;;;;26.33;19.27;;;;;;;7.81;93.19;99651.66;5072540;28;20188;-70
2023/03/24 03:49:58;;;;;;;27.40;19.33;;;;;;;7.75;93.30;99645.22;5073363;28;20223;-69
2023/03/24 03:52:24;;;;;;;25.17;20.17;;;;;;;7.67;93.98;99652.41;5072069;28;20191;-69
2023/03/24 03:54:53;;;;;;;25.20;19.73;;;;;;;7.70;94.70;99644.09;5072384;28;20187;-69
2023/03/24 03:57:20;;;;;;;23.10;18.33;;;;;;;7.63;93.91;99637.88;5072263;28;20202;-69
2023/03/24 03:59:48;;;;;;;23.30;18.43;;;;;;;7.56;93.98;99632.44;5072146;28;20206;-69
2023/03/24 04:02:42;;;;;;;29.40;19.77;;;;;;;7.50;95.23;99637.59;5073772;28;20229;-70
2023/03/24 04:05:30;;;;;;;24.60;19.07;;;;;;;7.46;95.17;99636.28;5072022;28;20660;-70
2023/03/24 04:08:09;;;;;;;24.53;19.57;;;;;;;7.48;94.70;99639.59;5072178;28;20180;-72
2023/03/24 04:11:01;;;;;;;31.00;20.77;;;;;;;7.53;95.26;99637.25;5072481;28;20612;-70
2023/03/24 04:13:40;;;;;;;23.70;19.10;;;;;;;7.60;95.14;99636.38;5070710;28;20632;-70
2023/03/24 04:16:16;;;;;;;27.83;19.97;;;;;;;7.69;94.88;99642.47;5073001;28;20217;-71
2023/03/24 04:19:01;;;;;;;24.17;19.20;;;;;;;7.76;94.03;99648.72;5071829;28;20179;-71
2023/03/24 04:21:50;;;;;;;27.03;19.00;;;;;;;7.84;93.61;99657.41;5072493;28;20180;-71
2023/03/24 04:24:28;;;;;;;24.40;19.13;;;;;;;7.89;93.46;99660.38;5072368;28;20210;-70
2023/03/24 04:26:59;;;;;;;22.17;18.03;;;;;;;7.95;93.00;99661.47;5072825;28;20176;-71
2023/03/24 04:29:36;;;;;;;24.20;18.07;;;;;;;7.99;93.98;99660.09;5071667;28;20237;-71
2023/03/24 04:32:18;;;;;;;27.33;19.47;;;;;;;8.05;93.54;99665.53;5069826;28;20278;-71
2023/03/24 04:34:49;;;;;;;25.30;18.00;;;;;;;8.13;93.01;99668.13;5072565;28;20261;-71
2023/03/24 04:37:20;;;;;;;31.70;22.47;;;;;;;8.17;92.40;99658.81;5072254;28;20205;-71
2023/03/24 04:39:49;;;;;;;33.57;22.83;;;;;;;8.23;92.18;99673.22;5072284;28;20188;-72
2023/03/24 04:42:20;;;;;;;31.00;20.57;;;;;;;8.25;92.73;99679.16;5072374;28;20249;-72
2023/03/24 04:44:50;;;;;;;27.97;19.17;;;;;;;8.31;91.78;99681.09;5072643;28;20309;-72
2023/03/24 04:47:21;;;;;;;23.40;19.30;;;;;;;8.33;91.55;99679.09;5071837;28;20385;-72
2023/03/24 04:49:48;;;;;;;27.80;19.03;;;;;;;8.29;91.28;99678.63;5071973;28;20203;-71
2023/03/24 04:52:15;;;;;;;26.13;19.23;;;;;;;8.15;91.10;99663.47;5074693;28;20249;-69
2023/03/24 04:54:42;;;;;;;28.93;19.97;;;;;;;8.24;92.00;99680.97;5076260;28;20192;-69
2023/03/24 04:57:09;;;;;;;31.23;20.10;;;;;;;8.36;94.16;99684.84;5075363;28;20548;-69
2023/03/24 04:59:35;;;;;;;26.67;18.97;;;;;;;8.70;94.11;99687.06;5075655;28;20201;-68
2023/03/24 05:02:03;;;;;;;25.57;17.90;;;;;;;9.16;91.28;99691.22;5076139;28;20276;-68
2023/03/24 05:04:31;;;;;;;20.70;17.07;;;;;;;9.59;86.61;99699.16;5075575;28;20275;-67
2023/03/24 05:06:57;;;;;;;25.07;16.93;;;;;;;9.86;86.11;99706.47;5076257;28;20188;-68
2023/03/24 05:09:25;;;;;;;18.57;14.80;;;;;;;10.15;83.58;99705.56;5075280;28;20215;-70
2023/03/24 05:11:52;;;;;;;19.33;15.37;;;;;;;10.27;80.81;99714.69;5076103;28;20223;-71
2023/03/24 05:14:20;;;;;;;22.20;15.27;;;;;;;10.42;80.32;99716.28;5075016;28;20604;-71
2023/03/24 05:16:46;;;;;;;18.93;15.43;;;;;;;10.77;81.00;99719.84;5075020;28;20192;-71
2023/03/24 05:19:13;;;;;;;21.30;16.83;;;;;;;11.33;78.85;99718.84;5075760;28;20199;-74
2023/03/24 05:21:42;;;;;;;27.30;17.27;;;;;;;12.00;75.13;99727.81;5075381;28;20256;-72
2023/03/24 05:24:08;;;;;;;26.73;16.93;;;;;;;12.41;75.00;99725.88;5075944;28;20196;-73
2023/03/24 05:26:35;;;;;;;33.10;17.67;;;;;;;12.86;71.66;99732.31;5075066;28;20241;-72
2023/03/24 05:29:02;;;;;;;34.80;15.47;;;;;;;13.32;70.95;99733.13;5074915;28;20189;-73
2023/03/24 05:31:29;;;;;;;23.40;15.30;;;;;;;13.65;68.46;99748.06;5074695;28;20194;-72
2023/03/24 05:33:56;;;;;;;20.13;14.43;;;;;;;13.99;68.34;99747.72;5074686;28;20202;-70
2023/03/24 05:42:50;;;;;;;17.40;13.50;;;;;;;14.46;64.09;99760.69;5074749;28;20206;-69
2023/03/24 05:45:17;;;;;;;13.97;12.57;;;;;;;14.54;64.88;99765.78;5075227;28;20184;-69
2023/03/24 05:47:44;;;;;;;16.97;12.40;;;;;;;14.71;63.12;99774.91;5074379;28;20253;-64
2023/03/24 05:50:11;;;;;;;13.73;11.73;;;;;;;14.44;64.33;99768.09;5073360;28;20208;-72
2023/03/24 05:52:38;;;;;;;16.00;12.37;;;;;;;14.48;63.30;99769.31;5074742;28;20199;-70
2023/03/24 05:55:06;;;;;;;15.00;12.10;;;;;;;14.43;63.53;99774.47;5073102;28;20720;-69
2023/03/24 05:57:33;;;;;;;15.70;12.40;;;;;;;14.26;65.70;99761.81;5073945;28;20536;-70
2023/03/24 06:00:05;;;;;;;15.83;13.10;;;;;;;14.02;65.29;99774.03;5072652;28;20200;-69
2023/03/24 06:02:33;;;;;;;25.27;13.00;;;;;;;14.23;67.27;99759.56;5072051;28;20191;-68
2023/03/24 06:05:00;;;;;;;29.83;13.10;;;;;;;14.27;66.62;99774.16;5074089;28;20195;-69
2023/03/24 06:07:29;;;;;;;17.57;12.47;;;;;;;14.65;66.80;99775.78;5074118;28;20658;-68
2023/03/24 06:09:56;;;;;;;21.83;13.20;;;;;;;15.13;63.63;99776.91;5074820;28;20223;-68
2023/03/24 06:12:23;;;;;;;19.67;13.87;;;;;;;15.29;64.02;99773.66;5074523;28;20215;-68
2023/03/24 06:14:50;;;;;;;23.70;13.37;;;;;;;15.61;63.08;99769.88;5074411;28;20191;-67
2023/03/24 06:17:20;;;;;;;26.67;13.80;;;;;;;16.00;61.52;99775.84;5073844;28;20241;-68
2023/03/24 06:19:48;;;;;;;15.27;12.87;;;;;;;16.05;61.58;99778.69;5074309;28;20195;-69
2023/03/24 06:22:16;;;;;;;19.80;12.97;;;;;;;16.04;60.07;99777.84;5072926;28;20184;-72
2023/03/24 06:24:43;;;;;;;16.57;13.90;;;;;;;15.85;60.05;99784.28;5073635;28;20651;-72
2023/03/24 06:27:10;;;;;;;52.47;15.20;;;;;;;16.02;61.11;99775.41;5074442;28;20194;-69
2023/03/24 06:29:37;;;;;;;58.63;16.03;;;;;;;16.18;59.73;99779.34;5073660;28;20219;-69
2023/03/24 06:32:04;;;;;;;18.03;12.47;;;;;;;16.44;58.96;99778.19;5073707;28;20191;-67
2023/03/24 06:34:32;;;;;;;17.57;13.80;;;;;;;16.92;58.16;99781.66;5073844;28;20223;-67
2023/03/24 06:36:59;;;;;;;16.77;12.80;;;;;;;16.97;57.05;99785.28;5073924;28;20242;-67
2023/03/24 06:39:26;;;;;;;18.23;13.20;;;;;;;16.76;56.84;99784.97;5072572;28;20205;-68
2023/03/24 06:41:53;;;;;;;14.60;12.33;;;;;;;16.55;61.16;99770.22;5072956;28;20192;-67
2023/03/24 06:44:19;;;;;;;19.87;12.83;;;;;;;16.92;56.16;99787.00;5073444;28;20555;-67
2023/03/24 06:46:46;;;;;;;19.03;12.77;;;;;;;17.44;57.11;99770.88;5073671;28;20250;-67
2023/03/24 06:49:13;;;;;;;17.83;12.73;;;;;;;17.95;52.63;99770.16;5073557;28;20192;-67
2023/03/24 06:51:41;;;;;;;15.27;12.53;;;;;;;18.52;52.29;99770.03;5073579;28;20252;-67
2023/03/24 06:54:08;;;;;;;24.53;13.10;;;;;;;18.86;50.30;99777.09;5073976;28;20195;-68
2023/03/24 06:56:35;;;;;;;23.03;12.73;;;;;;;19.26;50.02;99771.63;5074305;28;20195;-66
2023/03/24 06:59:01;;;;;;;26.47;12.50;;;;;;;19.31;51.65;99771.69;5073967;28;20254;-67
2023/03/24 07:01:28;;;;;;;19.40;13.27;;;;;;;19.00;48.61;99774.94;5073822;28;20235;-67
2023/03/24 07:03:55;;;;;;;11.17;10.10;;;;;;;18.85;47.84;99769.25;5072595;28;20324;-66
2023/03/24 07:06:22;;;;;;;18.27;11.90;;;;;;;18.37;48.64;99776.97;5072987;28;20245;-66
2023/03/24 07:08:51;;;;;;;16.93;11.17;;;;;;;17.86;51.16;99771.56;5072913;28;20557;-66
2023/03/24 07:11:18;;;;;;;43.07;12.57;;;;;;;18.25;50.09;99778.88;5072874;28;20218;-66
2023/03/24 07:13:45;;;;;;;16.00;11.30;;;;;;;18.72;49.97;99786.56;5072610;28;20192;-66
2023/03/24 07:16:11;;;;;;;13.60;11.33;;;;;;;18.86;47.90;99777.09;5073126;28;20192;-66
2023/03/24 07:18:38;;;;;;;17.73;10.80;;;;;;;19.21;48.64;99763.44;5072975;28;20190;-66
2023/03/24 07:21:07;;;;;;;10.33;9.33;;;;;;;20.03;51.83;99762.50;5071592;28;20728;-67
2023/03/24 07:23:34;;;;;;;13.60;12.10;;;;;;;20.62;44.53;99774.28;5071168;28;20218;-69
2023/03/24 07:26:02;;;;;;;30.90;12.90;;;;;;;21.19;45.08;99778.91;5072505;28;20621;-67
2023/03/24 07:28:28;;;;;;;20.70;11.03;;;;;;;21.89;44.44;99774.03;5072890;28;20191;-68
2023/03/24 07:30:55;;;;;;;15.27;9.83;;;;;;;22.58;46.21;99772.72;5073038;28;20212;-68
2023/03/24 07:33:23;;;;;;;43.97;17.13;;;;;;;23.15;41.65;99773.34;5071970;28;20199;-68
2023/03/24 07:35:54;;;;;;;45.27;14.83;;;;;;;23.18;37.37;99772.81;5073643;28;20226;-68
2023/03/24 07:38:21;;;;;;;15.63;11.67;;;;;;;22.36;39.66;99768.56;5072581;28;20233;-69
2023/03/24 07:40:48;;;;;;;13.57;12.17;;;;;;;21.12;41.37;99764.00;5071185;28;20204;-71
2023/03/24 07:43:16;;;;;;;37.60;13.10;;;;;;;21.03;46.36;99752.03;5073493;28;20188;-70
2023/03/24 07:45:44;;;;;;;25.97;13.17;;;;;;;21.88;43.28;99755.38;5072174;28;20611;-68
2023/03/24 07:48:11;;;;;;;22.03;12.40;;;;;;;22.52;41.89;99744.00;5072569;28;20199;-68
2023/03/24 07:50:38;;;;;;;14.90;12.27;;;;;;;22.53;38.84;99753.75;5071503;28;20212;-68
2023/03/24 07:53:08;;;;;;;17.77;13.83;;;;;;;22.47;39.32;99754.84;5073383;28;20196;-68
2023/03/24 07:55:35;;;;;;;22.27;12.77;;;;;;;22.59;40.54;99750.00;5072147;28;20605;-66
2023/03/24 07:58:02;;;;;;;18.40;13.20;;;;;;;22.71;38.51;99750.53;5072149;28;20199;-66
2023/03/24 08:00:31;;;;;;;17.23;11.73;;;;;;;22.81;40.53;99752.44;5071942;28;20718;-66
2023/03/24 08:02:59;;;;;;;15.87;11.90;;;;;;;22.96;39.70;99745.16;5070552;28;20621;-67
2023/03/24 08:05:29;;;;;;;18.17;12.13;;;;;;;23.37;38.78;99744.13;5072250;28;20282;-67
2023/03/24 08:07:57;;;;;;;20.00;12.70;;;;;;;23.41;39.04;99739.78;5072276;28;20194;-69
2023/03/24 08:10:26;;;;;;;16.73;12.30;;;;;;;23.64;38.69;99732.94;5072586;28;20220;-70
2023/03/24 08:12:53;;;;;;;14.43;13.03;;;;;;;23.91;35.82;99734.25;5070841;28;20284;-67
2023/03/24 08:15:21;;;;;;;17.40;15.53;;;;;;;23.95;36.65;99735.31;5071960;28;20241;-69
2023/03/24 08:17:50;;;;;;;83.17;26.43;;;;;;;23.88;39.74;99733.94;5070737;28;20218;-68
2023/03/24 08:20:20;;;;;;;25.07;21.67;;;;;;;24.29;39.82;99727.28;5071334;28;20211;-67
2023/03/24 08:22:49;;;;;;;32.67;15.40;;;;;;;23.87;36.36;99729.59;5072113;28;20276;-70
2023/03/24 08:25:18;;;;;;;24.37;15.30;;;;;;;23.96;39.46;99719.84;5071072;28;20706;-68
2023/03/24 08:27:46;;;;;;;18.57;14.20;;;;;;;24.39;35.14;99719.88;5071695;28;20189;-68
2023/03/24 08:30:16;;;;;;;14.37;13.00;;;;;;;24.59;37.59;99725.22;5070459;28;20269;-69
2023/03/24 08:32:45;;;;;;;21.27;12.90;;;;;;;25.12;36.21;99718.06;5072040;28;20193;-68
2023/03/24 08:35:14;;;;;;;13.63;11.33;;;;;;;25.45;35.84;99713.69;5070676;28;20197;-70
2023/03/24 08:37:42;;;;;;;15.90;12.97;;;;;;;25.74;33.62;99711.75;5072251;28;20195;-67
2023/03/24 08:40:13;;;;;;;13.00;10.77;;;;;;;26.14;33.75;99709.41;5071118;28;20592;-68
2023/03/24 08:42:40;;;;;;;15.30;11.57;;;;;;;25.80;32.06;99707.91;5071742;28;20179;-69
2023/03/24 08:45:08;;;;;;;18.60;14.03;;;;;;;25.96;31.58;99714.81;5070887;28;20191;-68
2023/03/24 08:47:36;;;;;;;14.90;13.23;;;;;;;25.73;31.56;99713.69;5072142;28;20249;-68
2023/03/24 08:50:03;;;;;;;17.57;12.60;;;;;;;25.44;32.51;99704.72;5053481;28;20206;-69
2023/03/24 08:52:31;;;;;;;20.07;12.23;;;;;;;25.43;32.31;99699.59;5071296;28;20683;-68
2023/03/24 08:54:58;;;;;;;16.97;13.93;;;;;;;25.07;32.81;99690.09;5071726;28;20244;-68
2023/03/24 08:57:25;;;;;;;13.10;10.37;;;;;;;25.34;35.03;99693.13;5071800;28;20190;-66
2023/03/24 08:59:52;;;;;;;16.43;10.83;;;;;;;25.71;34.22;99687.81;5069612;28;20282;-68
2023/03/24 09:02:18;;;;;;;28.83;19.03;;;;;;;26.06;33.56;99701.88;5052388;28;20224;-68
2023/03/24 09:04:45;;;;;;;17.57;12.90;;;;;;;26.30;32.25;99690.94;5065895;28;20191;-70
2023/03/24 09:07:12;;;;;;;19.87;12.50;;;;;;;26.09;31.26;99684.16;5071258;28;20227;-67
2023/03/24 09:09:40;;;;;;;14.37;12.83;;;;;;;25.35;32.38;99689.34;5071700;28;20188;-68
2023/03/24 09:12:08;;;;;;;16.43;13.03;;;;;;;24.80;33.70;99685.16;5070557;28;20750;-71
2023/03/24 09:14:35;;;;;;;22.37;12.60;;;;;;;24.51;34.96;99674.19;5070931;28;20187;-69
2023/03/24 09:17:02;;;;;;;18.60;12.37;;;;;;;24.80;34.99;99683.25;5069819;28;20252;-67
2023/03/24 09:19:30;;;;;;;26.70;13.50;;;;;;;25.23;33.36;99675.28;5051494;28;20187;-64
2023/03/24 09:21:57;;;;;;;16.00;12.33;;;;;;;25.48;33.33;99677.78;5051464;28;20202;-66
2023/03/24 09:24:24;;;;;;;19.00;12.90;;;;;;;25.63;32.83;99672.16;5053876;28;20191;-66
2023/03/24 09:26:52;;;;;;;21.38;14.68;;;;;;;25.46;32.28;99679.94;5070189;28;20474;-67
2023/03/24 09:29:19;;;;;;;14.47;13.03;;;;;;;25.26;32.13;99672.78;5070507;28;20598;-67
2023/03/24 09:31:46;;;;;;;16.00;14.13;;;;;;;24.43;33.99;99663.91;5070797;28;20211;-67
2023/03/24 09:34:12;;;;;;;16.80;12.30;;;;;;;24.21;35.40;99663.53;5070433;28;20186;-66
2023/03/24 09:36:39;;;;;;;14.20;11.63;;;;;;;24.15;35.22;99664.66;5070529;28;20190;-67
2023/03/24 09:39:06;;;;;;;15.30;12.63;;;;;;;24.43;35.27;99655.78;5073285;28;20194;-68
2023/03/24 09:41:32;;;;;;;15.33;13.70;;;;;;;24.51;34.47;99646.22;5074130;28;20542;-69
2023/03/24 09:44:07;;;;;;;14.57;11.57;;;;;;;24.80;35.27;99647.91;5074154;28;20240;-68
2023/03/24 09:46:37;;;;;;;15.13;12.60;;;;;;;24.64;33.85;99656.47;5072974;28;20640;-68
2023/03/24 09:49:04;;;;;;;12.63;11.53;;;;;;;24.66;35.30;99655.09;5074296;28;20197;-69
2023/03/24 09:51:35;;;;;;;17.63;12.83;;;;;;;24.35;33.53;99648.22;5073891;28;20213;-71
2023/03/24 09:54:11;;;;;;;13.70;11.40;;;;;;;24.10;35.48;99634.81;5074784;28;20185;-69
2023/03/24 09:56:42;;;;;;;14.10;11.17;;;;;;;23.82;36.10;99634.66;5073533;28;20185;-68
2023/03/24 09:59:16;;;;;;;19.70;12.23;;;;;;;23.38;36.80;99634.56;5073942;28;20245;-69
2023/03/24 10:01:42;;;;;;;15.77;12.77;;;;;;;23.74;37.17;99624.38;5073850;28;20506;-75
2023/03/24 10:04:15;;;;;;;28.43;13.00;;;;;;;24.13;34.84;99623.41;5073703;28;20254;-75
2023/03/24 10:06:42;;;;;;;12.60;11.50;;;;;;;24.22;35.24;99621.69;5073867;28;20193;-75
2023/03/24 10:09:22;;;;;;;17.77;13.07;;;;;;;24.44;34.43;99619.41;5074276;28;20189;-76
2023/03/24 10:11:57;;;;;;;13.10;10.23;;;;;;;24.34;36.29;99614.03;5061166;28;20629;-73
2023/03/24 10:14:39;;;;;;;12.50;10.77;;;;;;;24.45;36.36;99604.72;5073829;28;20234;-69
2023/03/24 10:17:15;;;;;;;11.83;10.77;;;;;;;24.57;35.96;99605.16;5073789;28;20181;-68
2023/03/24 10:19:51;;;;;;;16.27;11.55;;;;;;;24.36;36.41;99609.13;5072897;28;20442;-71
2023/03/24 10:22:25;;;;;;;11.47;10.27;;;;;;;24.71;34.95;99603.44;5073097;28;20186;-70
2023/03/24 10:24:58;;;;;;;12.47;9.73;;;;;;;24.64;35.13;99602.16;5073466;28;20271;-72
2023/03/24 10:27:30;;;;;;;12.13;10.93;;;;;;;24.72;35.32;99599.63;5073117;28;20226;-72
2023/03/24 10:30:06;;;;;;;11.97;9.37;;;;;;;24.72;35.36;99599.63;5073893;28;20268;-73
2023/03/24 10:32:35;;;;;;;10.47;8.87;;;;;;;24.61;35.60;99587.22;5073303;28;20206;-71
2023/03/24 10:35:08;;;;;;;10.57;9.30;;;;;;;24.79;35.40;99600.09;5066517;28;20202;-70
2023/03/24 10:37:37;;;;;;;10.63;9.73;;;;;;;24.76;33.08;99589.81;5071946;28;20239;-72
2023/03/24 10:40:15;;;;;;;8.90;8.03;;;;;;;24.85;34.21;99593.53;5073510;28;20722;-72
2023/03/24 10:42:42;;;;;;;8.03;7.53;;;;;;;24.90;32.89;99589.94;5073369;28;20188;-69
2023/03/24 10:45:16;;;;;;;8.30;7.43;;;;;;;24.88;33.06;99594.88;5073340;28;20737;-68
2023/03/24 10:47:43;;;;;;;9.60;8.47;;;;;;;24.83;32.19;99584.84;5074887;28;20192;-68
2023/03/24 10:50:11;;;;;;;8.67;7.90;;;;;;;25.05;32.63;99581.66;5056097;28;20198;-69
2023/03/24 10:52:42;;;;;;;11.63;7.93;;;;;;;25.11;34.29;99577.75;5070649;28;20990;-68
2023/03/24 10:55:16;;;;;;;10.30;9.27;;;;;;;24.81;32.30;99576.19;5073202;28;20196;-71
2023/03/24 10:57:44;;;;;;;14.50;7.83;;;;;;;24.74;35.02;99572.97;5072921;28;20177;-70
2023/03/24 11:00:23;;;;;;;51.80;41.00;;;;;;;24.86;36.85;99570.69;5073295;28;20243;-70
2023/03/24 11:02:57;;;;;;;13.13;11.80;;;;;;;25.07;35.35;99565.06;5073204;28;20186;-74
2023/03/24 11:05:29;;;;;;;15.37;12.20;;;;;;;25.15;34.65;99559.78;5071282;28;20697;-74
2023/03/24 11:08:00;;;;;;;9.53;8.50;;;;;;;25.10;32.59;99562.56;5073271;28;20252;-73
2023/03/24 11:10:28;;;;;;;10.60;9.73;;;;;;;25.11;35.54;99542.41;5072911;28;20267;-71
2023/03/24 11:13:03;;;;;;;9.93;9.10;;;;;;;25.29;34.40;99540.88;5073032;28;20269;-73
2023/03/24 11:15:35;;;;;;;9.07;8.47;;;;;;;25.28;33.81;99542.00;5054811;28;20610;-73
2023/03/24 11:18:15;;;;;;;50.70;42.30;;;;;;;25.07;37.20;99532.44;5054496;28;20264;-73
2023/03/24 11:20:45;;;;;;;14.67;13.23;;;;;;;24.88;34.44;99527.72;5074299;28;20536;-69
2023/03/24 11:23:17;;;;;;;18.43;14.23;;;;;;;25.14;34.48;99525.53;5064651;28;20201;-71
2023/03/24 11:25:50;;;;;;;27.27;11.27;;;;;;;25.39;34.42;99519.03;5072348;28;20183;-71
2023/03/24 11:28:20;;;;;;;9.77;8.90;;;;;;;25.42;35.18;99510.25;5072040;28;20198;-68
2023/03/24 11:30:51;;;;;;;12.30;8.53;;;;;;;25.32;34.75;99510.41;5072350;28;20199;-71
2023/03/24 11:33:21;;;;;;;8.50;7.67;;;;;;;24.98;34.29;99504.25;5073145;28;20187;-70
2023/03/24 11:35:48;;;;;;;8.90;8.07;;;;;;;25.00;35.59;99492.78;5071065;28;20210;-69
2023/03/24 11:38:17;;;;;;;8.20;7.40;;;;;;;24.92;34.19;99490.72;5072999;28;20285;-69
2023/03/24 11:40:53;;;;;;;8.17;7.17;;;;;;;24.65;34.83;99495.91;5071666;28;20198;-68
2023/03/24 11:43:21;;;;;;;8.67;7.87;;;;;;;24.59;36.28;99488.06;5072052;28;20604;-70